Time;durP1;ratioP1;P1;durP2;ratioP2;P2;SDS_P1;SDS_P2;PMS_P1;PMS_P2;Temp;Humidity;BMP_temperature;BMP_pressure;BME280_temperature;BME280_humidity;BME280_pressure;Samples;Min_cycle;Max_cycle;Signal;HPM_P1;HPM_P2
2022/09/01 00:01:29;;;;;;;30.83;28.43;;;16.10;94.70;;;;;;5030297;28;20557;-71
2022/09/01 00:03:58;;;;;;;32.27;29.77;;;16.10;94.80;;;;;;5028898;28;21020;-71
2022/09/01 00:06:25;;;;;;;31.57;28.77;;;15.90;94.80;;;;;;5024197;28;20467;-71
2022/09/01 00:08:57;;;;;;;30.60;28.30;;;15.90;95.10;;;;;;5028150;28;21619;-71
2022/09/01 00:11:26;;;;;;;32.40;29.77;;;15.90;95.00;;;;;;5028080;28;20468;-71
2022/09/01 00:13:55;;;;;;;31.47;29.17;;;15.90;94.90;;;;;;5026731;28;20452;-71
2022/09/01 00:16:23;;;;;;;32.23;29.73;;;15.90;95.00;;;;;;5030611;28;20534;-71
2022/09/01 00:18:52;;;;;;;32.80;30.30;;;15.90;95.00;;;;;;5026380;28;20460;-71
2022/09/01 00:21:21;;;;;;;32.77;30.07;;;15.90;95.00;;;;;;5027487;28;20478;-72
2022/09/01 00:23:48;;;;;;;32.90;30.27;;;15.90;95.10;;;;;;5027877;28;20454;-71
2022/09/01 00:26:16;;;;;;;32.30;29.90;;;15.80;95.20;;;;;;5024750;28;20463;-71
2022/09/01 00:28:43;;;;;;;31.97;29.27;;;15.90;95.20;;;;;;5025723;28;20549;-71
2022/09/01 00:31:13;;;;;;;31.67;29.30;;;15.90;94.90;;;;;;5028366;28;21030;-71
2022/09/01 00:33:40;;;;;;;32.07;29.43;;;15.80;95.00;;;;;;5022438;28;20469;-71
2022/09/01 00:36:08;;;;;;;31.63;29.23;;;15.90;94.70;;;;;;5028510;28;20907;-72
2022/09/01 00:38:35;;;;;;;33.70;30.77;;;15.80;94.80;;;;;;5025760;28;20490;-71
2022/09/01 00:41:02;;;;;;;32.40;29.70;;;15.80;95.00;;;;;;5025821;28;20546;-71
2022/09/01 00:43:40;;;;;;;32.43;29.77;;;15.80;95.10;;;;;;5026067;28;20452;-71
2022/09/01 00:46:09;;;;;;;34.00;31.47;;;15.80;95.10;;;;;;5028595;28;20468;-71
2022/09/01 00:48:37;;;;;;;30.93;28.80;;;15.80;95.00;;;;;;5027764;28;20506;-71
2022/09/01 00:51:05;;;;;;;33.90;31.30;;;15.80;94.90;;;;;;5025398;28;20470;-71
2022/09/01 00:53:33;;;;;;;33.10;30.60;;;15.90;94.80;;;;;;5025582;28;20552;-71
2022/09/01 00:56:01;;;;;;;32.93;30.43;;;15.80;94.70;;;;;;5027257;28;20549;-71
2022/09/01 00:58:29;;;;;;;33.50;30.50;;;15.80;94.70;;;;;;5025934;28;20837;-71
2022/09/01 01:00:58;;;;;;;31.63;29.13;;;15.70;94.80;;;;;;5023677;28;20571;-71
2022/09/01 01:03:25;;;;;;;32.23;29.67;;;15.70;94.90;;;;;;5014296;28;21073;-71
2022/09/01 01:05:56;;;;;;;32.50;29.77;;;15.70;94.90;;;;;;5031374;28;20558;-71
2022/09/01 01:08:32;;;;;;;32.83;30.37;;;15.70;95.00;;;;;;5024845;28;20455;-71
2022/09/01 01:11:00;;;;;;;32.30;29.50;;;15.70;94.90;;;;;;5027979;28;20449;-71
2022/09/01 01:13:34;;;;;;;33.43;30.93;;;15.60;95.10;;;;;;5024025;28;20469;-73
2022/09/01 01:16:07;;;;;;;32.13;29.80;;;15.60;95.20;;;;;;5027540;28;20836;-72
2022/09/01 01:18:34;;;;;;;31.63;29.23;;;15.60;95.20;;;;;;5018807;28;20475;-72
2022/09/01 01:23:52;;;;;;;32.33;29.83;;;15.50;95.40;;;;;;5026027;28;20471;-71
2022/09/01 01:26:20;;;;;;;33.53;30.27;;;15.50;95.50;;;;;;5027512;28;20442;-72
2022/09/01 01:28:47;;;;;;;31.80;29.30;;;15.40;95.60;;;;;;5023545;28;20462;-72
2022/09/01 01:31:17;;;;;;;32.97;30.07;;;15.50;95.60;;;;;;5027968;28;20478;-72
2022/09/01 01:33:46;;;;;;;32.27;29.67;;;15.50;95.50;;;;;;5024062;28;20552;-72
2022/09/01 01:36:16;;;;;;;32.50;29.60;;;15.50;95.30;;;;;;5028796;28;20564;-72
2022/09/01 01:38:46;;;;;;;31.23;28.83;;;15.50;95.40;;;;;;5022674;28;20587;-72
2022/09/01 01:41:16;;;;;;;31.90;29.00;;;15.60;95.30;;;;;;5021332;28;20472;-72
2022/09/01 01:43:47;;;;;;;30.17;27.80;;;15.50;95.20;;;;;;5023406;28;20454;-72
2022/09/01 01:46:16;;;;;;;32.30;29.90;;;15.50;95.10;;;;;;5025463;28;20507;-72
2022/09/01 01:48:44;;;;;;;32.27;29.40;;;15.50;95.10;;;;;;5023349;28;20456;-71
2022/09/01 01:51:12;;;;;;;31.70;29.10;;;15.40;95.40;;;;;;5027317;28;20539;-71
2022/09/01 01:53:40;;;;;;;31.77;29.17;;;15.30;95.60;;;;;;5024790;28;20463;-72
2022/09/01 01:56:09;;;;;;;31.10;28.80;;;15.40;95.70;;;;;;5022029;28;20466;-72
2022/09/01 01:58:37;;;;;;;31.73;29.17;;;15.40;95.60;;;;;;5023014;28;20473;-72
2022/09/01 02:01:09;;;;;;;30.10;27.63;;;15.40;95.70;;;;;;5026416;28;20461;-72
2022/09/01 02:03:37;;;;;;;32.43;29.40;;;15.40;95.60;;;;;;5023268;28;20557;-72
2022/09/01 02:06:08;;;;;;;31.00;28.70;;;15.40;95.50;;;;;;5016100;28;20495;-71
2022/09/01 02:08:37;;;;;;;30.97;28.57;;;15.40;95.20;;;;;;5021958;28;20486;-71
2022/09/01 02:11:06;;;;;;;31.13;28.73;;;15.30;95.00;;;;;;5028275;28;20468;-71
2022/09/01 02:13:34;;;;;;;30.90;28.40;;;15.30;95.10;;;;;;5023512;28;20530;-71
2022/09/01 02:16:03;;;;;;;31.27;28.90;;;15.30;95.20;;;;;;5026056;28;20481;-71
2022/09/01 02:18:35;;;;;;;30.10;27.63;;;15.30;95.30;;;;;;5024000;28;20470;-71
2022/09/01 02:21:02;;;;;;;33.70;31.10;;;15.30;95.40;;;;;;5026772;28;20456;-71
2022/09/01 02:23:30;;;;;;;33.77;31.23;;;15.30;95.40;;;;;;5023990;28;20460;-71
2022/09/01 02:26:01;;;;;;;37.23;34.40;;;15.30;95.40;;;;;;5026525;28;20463;-71
2022/09/01 02:28:30;;;;;;;47.47;44.23;;;15.30;95.40;;;;;;5019243;28;20917;-71
2022/09/01 02:30:58;;;;;;;34.23;31.53;;;15.20;95.40;;;;;;5026206;28;20463;-71
2022/09/01 02:33:27;;;;;;;32.03;29.63;;;15.20;95.20;;;;;;5019246;28;20469;-71
2022/09/01 02:35:58;;;;;;;32.07;29.67;;;15.10;95.50;;;;;;5025805;28;20944;-71
2022/09/01 02:38:28;;;;;;;31.93;29.40;;;15.10;95.60;;;;;;5027390;28;21021;-71
2022/09/01 02:40:57;;;;;;;34.50;31.50;;;15.10;95.60;;;;;;5023227;28;21286;-70
2022/09/01 02:43:27;;;;;;;33.30;30.73;;;15.10;95.60;;;;;;5023304;28;20490;-71
2022/09/01 02:45:56;;;;;;;31.50;28.90;;;15.10;95.60;;;;;;5025428;28;20946;-71
2022/09/01 02:48:31;;;;;;;34.43;31.70;;;15.10;95.50;;;;;;5025007;28;20464;-71
2022/09/01 02:51:00;;;;;;;35.03;32.03;;;15.10;95.70;;;;;;5026876;28;20511;-71
2022/09/01 02:53:28;;;;;;;36.97;34.33;;;15.10;95.70;;;;;;5020827;28;20559;-71
2022/09/01 02:55:57;;;;;;;34.43;31.80;;;15.10;95.70;;;;;;5025895;28;20953;-71
2022/09/01 02:58:25;;;;;;;34.57;31.80;;;15.10;95.90;;;;;;5024057;28;20499;-71
2022/09/01 03:00:54;;;;;;;35.17;32.17;;;15.10;95.70;;;;;;5027912;28;20829;-71
2022/09/01 03:03:20;;;;;;;34.67;32.07;;;15.10;95.70;;;;;;5024132;28;20461;-72
2022/09/01 03:05:48;;;;;;;34.00;31.40;;;15.10;95.60;;;;;;5026250;28;20490;-72
2022/09/01 03:08:16;;;;;;;54.30;50.70;;;15.10;95.90;;;;;;5024283;28;20464;-72
2022/09/01 03:10:46;;;;;;;31.73;29.10;;;15.10;95.70;;;;;;5026818;28;20953;-72
2022/09/01 03:13:15;;;;;;;41.60;38.60;;;15.10;95.60;;;;;;5024557;28;20546;-72
2022/09/01 03:15:43;;;;;;;37.57;34.87;;;15.10;95.50;;;;;;5026587;28;20462;-72
2022/09/01 03:18:12;;;;;;;40.53;37.47;;;15.10;95.30;;;;;;5027816;28;20492;-71
2022/09/01 03:20:43;;;;;;;43.10;40.10;;;14.90;95.70;;;;;;5029069;28;20452;-72
2022/09/01 03:23:13;;;;;;;35.73;33.23;;;14.90;95.90;;;;;;5024455;28;20491;-71
2022/09/01 03:25:43;;;;;;;31.60;28.93;;;14.90;96.10;;;;;;5023122;28;21216;-72
2022/09/01 03:28:11;;;;;;;36.20;33.40;;;14.90;96.10;;;;;;5029175;28;20449;-72
2022/09/01 03:30:44;;;;;;;34.40;31.60;;;14.90;95.90;;;;;;5026506;28;20516;-70
2022/09/01 03:33:11;;;;;;;34.40;31.80;;;14.90;95.80;;;;;;5024735;28;20492;-70
2022/09/01 03:35:38;;;;;;;34.70;31.60;;;14.90;95.80;;;;;;5024907;28;20889;-70
2022/09/01 03:38:05;;;;;;;36.23;33.27;;;14.90;95.80;;;;;;5027793;28;20480;-71
2022/09/01 03:40:35;;;;;;;47.77;44.47;;;15.00;95.90;;;;;;5027379;28;20462;-71
2022/09/01 03:43:06;;;;;;;37.33;34.47;;;15.00;95.80;;;;;;5026672;28;21131;-71
2022/09/01 03:45:33;;;;;;;41.77;38.83;;;15.00;95.80;;;;;;5026792;28;20475;-71
2022/09/01 03:48:02;;;;;;;34.73;32.10;;;15.00;95.70;;;;;;5027035;28;20829;-71
2022/09/01 03:50:29;;;;;;;40.67;37.83;;;15.00;95.70;;;;;;5026455;28;20473;-73
2022/09/01 03:53:00;;;;;;;34.40;31.57;;;14.90;95.90;;;;;;5019975;28;20476;-71
2022/09/01 03:55:29;;;;;;;43.23;40.10;;;14.90;95.90;;;;;;5027789;28;20462;-71
2022/09/01 03:57:59;;;;;;;32.73;29.97;;;14.90;95.90;;;;;;5025743;28;20481;-71
2022/09/01 04:00:31;;;;;;;51.47;48.03;;;14.90;95.90;;;;;;5028152;28;20545;-71
2022/09/01 04:03:00;;;;;;;34.33;31.63;;;14.90;95.90;;;;;;5024088;28;20495;-71
2022/09/01 04:05:28;;;;;;;45.30;42.13;;;14.90;95.80;;;;;;5026245;28;20524;-71
2022/09/01 04:07:56;;;;;;;41.27;38.47;;;14.90;95.50;;;;;;5024732;28;20951;-71
2022/09/01 04:10:24;;;;;;;33.97;31.37;;;14.90;95.30;;;;;;5027626;28;20461;-71
2022/09/01 04:12:51;;;;;;;49.20;46.10;;;14.90;95.10;;;;;;5026126;28;20484;-71
2022/09/01 04:15:18;;;;;;;31.63;29.10;;;14.70;95.30;;;;;;5024384;28;20468;-70
2022/09/01 04:18:08;;;;;;;39.13;36.53;;;14.70;95.50;;;;;;5027187;28;20451;-71
2022/09/01 04:20:47;;;;;;;45.00;41.97;;;14.80;95.50;;;;;;5025346;28;20461;-71
2022/09/01 04:23:19;;;;;;;34.90;32.03;;;14.70;95.60;;;;;;5023097;28;20459;-71
2022/09/01 04:25:48;;;;;;;53.00;49.50;;;14.70;95.30;;;;;;5021057;28;21100;-71
2022/09/01 04:28:21;;;;;;;32.47;29.87;;;14.70;95.40;;;;;;5025613;28;20463;-71
2022/09/01 04:30:49;;;;;;;52.50;48.70;;;14.70;95.50;;;;;;5026226;28;20518;-71
2022/09/01 04:33:18;;;;;;;33.63;30.90;;;14.70;95.60;;;;;;5026160;28;20464;-71
2022/09/01 04:35:45;;;;;;;34.33;31.70;;;14.70;95.40;;;;;;5031358;28;20463;-71
2022/09/01 04:38:14;;;;;;;34.37;31.47;;;14.70;95.50;;;;;;5020674;28;20480;-71
2022/09/01 04:40:42;;;;;;;34.63;31.80;;;14.70;95.40;;;;;;5027420;28;20521;-71
2022/09/01 04:43:10;;;;;;;37.13;34.33;;;14.60;95.50;;;;;;5024120;28;20489;-72
2022/09/01 04:45:37;;;;;;;51.17;47.70;;;14.70;95.40;;;;;;5027255;28;20468;-72
2022/09/01 04:48:04;;;;;;;34.53;31.67;;;14.60;95.20;;;;;;5026294;28;20467;-71
2022/09/01 04:50:34;;;;;;;39.80;36.90;;;14.60;95.30;;;;;;5022532;28;20459;-71
2022/09/01 04:53:03;;;;;;;41.55;38.40;;;14.60;95.20;;;;;;5022387;28;21085;-71
2022/09/01 04:55:31;;;;;;;34.93;31.67;;;14.60;95.50;;;;;;5025737;28;20576;-72
2022/09/01 04:58:03;;;;;;;38.90;35.80;;;14.60;95.50;;;;;;5027371;28;20459;-71
2022/09/01 05:00:31;;;;;;;36.60;33.50;;;14.60;95.40;;;;;;5026603;28;20465;-72
2022/09/01 05:03:03;;;;;;;38.53;35.23;;;14.70;95.20;;;;;;5026326;28;20494;-71
2022/09/01 05:05:42;;;;;;;48.93;45.60;;;14.80;95.00;;;;;;5026201;28;20485;-71
2022/09/01 05:08:12;;;;;;;33.33;30.63;;;14.90;94.50;;;;;;5025502;28;20848;-72
2022/09/01 05:10:41;;;;;;;32.80;30.13;;;14.80;94.30;;;;;;5028332;28;20451;-72
2022/09/01 05:13:11;;;;;;;32.77;29.90;;;14.90;94.40;;;;;;5026274;28;20488;-74
2022/09/01 05:15:39;;;;;;;54.03;50.73;;;14.90;94.10;;;;;;5026621;28;20493;-71
2022/09/01 05:18:08;;;;;;;32.90;30.30;;;14.90;94.20;;;;;;5028366;28;20964;-71
2022/09/01 05:20:40;;;;;;;48.73;45.50;;;15.00;93.80;;;;;;5022560;28;20500;-71
2022/09/01 05:23:11;;;;;;;48.47;44.97;;;15.20;93.80;;;;;;5026178;28;20972;-71
2022/09/01 05:25:40;;;;;;;33.20;30.40;;;15.30;93.60;;;;;;5028673;28;20456;-71
2022/09/01 05:28:11;;;;;;;33.70;30.90;;;15.40;93.00;;;;;;5024743;28;20465;-71
2022/09/01 05:30:40;;;;;;;45.97;42.57;;;15.50;92.60;;;;;;5018315;28;20557;-72
2022/09/01 05:33:10;;;;;;;45.90;42.70;;;15.60;91.70;;;;;;5023792;28;20471;-72
2022/09/01 05:35:43;;;;;;;46.00;43.00;;;15.50;91.60;;;;;;5027081;28;20455;-72
2022/09/01 05:38:14;;;;;;;34.20;31.37;;;15.50;91.60;;;;;;5026263;28;20468;-72
2022/09/01 05:40:42;;;;;;;44.80;41.83;;;15.50;91.70;;;;;;5027940;28;20458;-73
2022/09/01 05:43:11;;;;;;;36.77;33.97;;;15.60;91.70;;;;;;5025165;28;20508;-71
2022/09/01 05:45:42;;;;;;;44.47;41.27;;;15.60;91.70;;;;;;5027018;28;20957;-71
2022/09/01 05:48:11;;;;;;;44.83;41.93;;;15.60;91.90;;;;;;5024439;28;21101;-71
2022/09/01 05:50:42;;;;;;;41.87;38.87;;;15.80;91.70;;;;;;5027341;28;20460;-72
2022/09/01 05:53:14;;;;;;;34.70;31.80;;;15.80;91.60;;;;;;5025097;28;20480;-72
2022/09/01 05:55:43;;;;;;;38.87;35.97;;;15.90;91.40;;;;;;5029462;28;20841;-71
2022/09/01 05:58:12;;;;;;;36.80;33.97;;;16.00;91.20;;;;;;5025661;28;20466;-71
2022/09/01 06:00:41;;;;;;;44.80;41.77;;;16.00;91.30;;;;;;5022548;28;20614;-73
2022/09/01 06:03:09;;;;;;;45.77;42.57;;;16.00;91.30;;;;;;5017839;28;20880;-73
2022/09/01 06:05:38;;;;;;;48.37;45.17;;;16.10;91.20;;;;;;5028833;28;20486;-73
2022/09/01 06:08:09;;;;;;;45.27;42.27;;;16.10;91.20;;;;;;5027073;28;20466;-71
2022/09/01 06:10:39;;;;;;;40.13;37.43;;;16.20;91.50;;;;;;5023074;28;20452;-75
2022/09/01 06:13:06;;;;;;;43.70;40.70;;;16.30;91.30;;;;;;5024042;28;20502;-74
2022/09/01 06:15:37;;;;;;;34.40;31.70;;;16.50;91.10;;;;;;5027075;28;20835;-74
2022/09/01 06:18:05;;;;;;;33.97;31.57;;;16.70;90.60;;;;;;5024634;28;20451;-74
2022/09/01 06:20:33;;;;;;;48.30;45.27;;;16.90;90.00;;;;;;5021450;28;20471;-76
2022/09/01 06:23:01;;;;;;;40.53;37.83;;;17.00;89.50;;;;;;5023320;28;20499;-76
2022/09/01 06:25:29;;;;;;;39.27;36.17;;;17.20;89.20;;;;;;5024863;28;20465;-69
2022/09/01 06:27:57;;;;;;;47.53;44.63;;;17.40;88.40;;;;;;5023187;28;20464;-70
2022/09/01 06:30:25;;;;;;;54.10;50.63;;;17.50;88.10;;;;;;5026726;28;20453;-70
2022/09/01 06:32:53;;;;;;;43.03;40.33;;;17.70;87.60;;;;;;5024366;28;20557;-71
2022/09/01 06:35:23;;;;;;;61.00;57.50;;;17.80;87.10;;;;;;5027225;28;20473;-71
2022/09/01 06:37:51;;;;;;;38.33;35.70;;;17.90;86.70;;;;;;5026346;28;20482;-71
2022/09/01 06:40:18;;;;;;;37.87;35.20;;;18.20;85.80;;;;;;5028274;28;20526;-71
2022/09/01 06:42:49;;;;;;;37.97;35.43;;;18.30;85.10;;;;;;5024674;28;20584;-70
2022/09/01 06:45:19;;;;;;;38.67;36.00;;;18.50;84.30;;;;;;5028741;28;20543;-72
2022/09/01 06:47:47;;;;;;;57.30;54.03;;;18.80;83.90;;;;;;5027212;28;20460;-70
2022/09/01 06:50:17;;;;;;;42.47;39.63;;;18.90;83.20;;;;;;5030832;28;20454;-72
2022/09/01 06:52:44;;;;;;;40.97;38.37;;;19.00;82.90;;;;;;5030915;28;20483;-69
2022/09/01 06:55:12;;;;;;;40.03;37.33;;;19.00;82.40;;;;;;5031338;28;20464;-70
2022/09/01 06:57:39;;;;;;;41.70;38.90;;;19.20;82.30;;;;;;5030767;28;20455;-70
2022/09/01 07:00:16;;;;;;;41.80;39.10;;;19.30;81.90;;;;;;5030611;28;20480;-70
2022/09/01 07:02:44;;;;;;;47.43;44.43;;;19.30;80.80;;;;;;5029064;28;20479;-70
2022/09/01 07:05:17;;;;;;;43.07;40.17;;;19.30;80.80;;;;;;5023200;28;20475;-71
2022/09/01 07:07:50;;;;;;;55.37;52.27;;;19.40;80.30;;;;;;5030772;28;20605;-71
2022/09/01 07:10:21;;;;;;;53.37;50.07;;;19.60;79.90;;;;;;5027044;28;20464;-71
2022/09/01 07:12:49;;;;;;;57.37;53.97;;;19.60;79.80;;;;;;5028912;28;20480;-71
2022/09/01 07:15:18;;;;;;;42.60;39.97;;;19.60;79.30;;;;;;5029953;28;20463;-71
2022/09/01 07:17:48;;;;;;;39.50;37.20;;;19.60;79.70;;;;;;5031648;28;20975;-71
2022/09/01 07:20:19;;;;;;;39.37;37.00;;;19.90;79.50;;;;;;5027277;28;21223;-71
2022/09/01 07:22:47;;;;;;;61.47;57.93;;;20.20;77.90;;;;;;5028545;28;20512;-71
2022/09/01 07:25:16;;;;;;;46.07;43.17;;;20.20;77.00;;;;;;5032615;28;20539;-70
2022/09/01 07:27:47;;;;;;;46.37;43.57;;;20.30;77.20;;;;;;5028831;28;20464;-71
2022/09/01 07:30:15;;;;;;;59.70;56.20;;;20.20;77.10;;;;;;5029062;28;20491;-72
2022/09/01 07:32:44;;;;;;;58.80;55.50;;;20.20;77.40;;;;;;5029330;28;20878;-73
2022/09/01 07:35:11;;;;;;;42.23;39.70;;;20.20;77.50;;;;;;5031052;28;20548;-73
2022/09/01 07:37:38;;;;;;;60.60;57.07;;;20.20;77.30;;;;;;5031824;28;20462;-73
2022/09/01 07:40:08;;;;;;;45.03;41.87;;;20.00;78.00;;;;;;5029680;28;20481;-72
2022/09/01 07:42:37;;;;;;;45.20;42.60;;;20.10;77.70;;;;;;5030193;28;20518;-73
2022/09/01 07:45:08;;;;;;;60.37;56.80;;;20.10;77.70;;;;;;5026344;28;21005;-73
2022/09/01 07:47:36;;;;;;;61.40;58.00;;;20.10;78.00;;;;;;5030125;28;20464;-71
2022/09/01 07:50:07;;;;;;;54.00;50.90;;;20.10;78.10;;;;;;5029717;28;20541;-71
2022/09/01 07:52:41;;;;;;;46.80;43.80;;;20.20;77.30;;;;;;5029986;28;20842;-72
2022/09/01 07:55:10;;;;;;;56.90;53.47;;;20.40;76.50;;;;;;5029670;28;20456;-72
2022/09/01 07:57:36;;;;;;;47.03;44.10;;;20.40;76.60;;;;;;5029342;28;20456;-73
2022/09/01 08:00:06;;;;;;;59.43;56.03;;;20.40;76.80;;;;;;5027913;28;20901;-74
2022/09/01 08:02:35;;;;;;;55.33;52.27;;;20.50;76.20;;;;;;5028844;28;20481;-73
2022/09/01 08:05:03;;;;;;;49.97;47.13;;;20.30;77.00;;;;;;5029616;28;20474;-73
2022/09/01 08:07:31;;;;;;;44.70;42.33;;;20.30;77.40;;;;;;5031373;28;20476;-73
2022/09/01 08:09:58;;;;;;;51.30;48.47;;;20.60;76.00;;;;;;5026968;28;20457;-72
2022/09/01 08:12:25;;;;;;;48.50;45.93;;;20.80;75.10;;;;;;5027662;28;21005;-73
2022/09/01 08:14:52;;;;;;;39.83;37.53;;;20.60;75.50;;;;;;5030755;28;20452;-74
2022/09/01 08:17:20;;;;;;;60.43;56.93;;;20.60;76.20;;;;;;5029564;28;20457;-72
2022/09/01 08:19:47;;;;;;;43.10;40.67;;;20.70;75.50;;;;;;5029171;28;20510;-71
2022/09/01 08:22:14;;;;;;;42.47;39.97;;;20.60;75.70;;;;;;5028578;28;20503;-71
2022/09/01 08:24:43;;;;;;;55.00;51.90;;;20.40;76.10;;;;;;5029556;28;20468;-72
2022/09/01 08:27:10;;;;;;;45.53;43.00;;;20.40;76.30;;;;;;5029587;28;20456;-69
2022/09/01 08:29:36;;;;;;;52.07;49.27;;;20.20;77.40;;;;;;5027468;28;20456;-70
2022/09/01 08:32:04;;;;;;;41.83;39.43;;;20.50;77.20;;;;;;5029008;28;20490;-71
2022/09/01 08:34:32;;;;;;;38.67;36.47;;;20.60;76.40;;;;;;5027494;28;20460;-70
2022/09/01 08:36:59;;;;;;;40.63;38.20;;;20.70;75.90;;;;;;5025731;28;20463;-71
2022/09/01 08:39:26;;;;;;;51.33;48.47;;;21.00;74.40;;;;;;5023639;28;20845;-70
2022/09/01 08:42:03;;;;;;;52.00;49.20;;;21.10;74.40;;;;;;5020292;28;20504;-71
2022/09/01 08:44:41;;;;;;;44.23;41.97;;;21.20;74.00;;;;;;5025746;28;20460;-72
2022/09/01 08:47:11;;;;;;;55.30;52.50;;;21.30;73.50;;;;;;5016302;28;20468;-70
2022/09/01 08:49:39;;;;;;;58.00;55.23;;;21.10;73.90;;;;;;5020213;28;20465;-72
2022/09/01 08:52:13;;;;;;;40.37;38.17;;;21.00;74.50;;;;;;5023633;28;20481;-71
2022/09/01 08:54:45;;;;;;;55.00;52.10;;;21.10;74.40;;;;;;5020619;28;20496;-72
2022/09/01 08:57:17;;;;;;;45.30;43.00;;;21.10;74.60;;;;;;5023289;28;20508;-71
2022/09/01 08:59:44;;;;;;;51.93;49.20;;;21.20;74.30;;;;;;5022791;28;20477;-70
2022/09/01 09:02:27;;;;;;;47.87;45.50;;;21.30;74.00;;;;;;5014642;28;21141;-71
2022/09/01 09:05:03;;;;;;;44.80;42.60;;;21.50;73.70;;;;;;5022076;28;20479;-71
2022/09/01 09:07:43;;;;;;;42.57;40.47;;;21.30;73.70;;;;;;5017257;28;20483;-71
2022/09/01 09:10:17;;;;;;;40.27;38.27;;;21.40;73.70;;;;;;5018005;28;20453;-71
2022/09/01 09:13:02;;;;;;;44.20;41.73;;;21.60;73.00;;;;;;5013333;28;20478;-72
2022/09/01 09:15:38;;;;;;;55.57;52.67;;;21.50;72.30;;;;;;5018271;28;20449;-71
2022/09/01 09:18:16;;;;;;;40.70;38.53;;;21.60;72.60;;;;;;5021439;28;20460;-71
2022/09/01 09:20:44;;;;;;;42.60;40.53;;;21.70;72.10;;;;;;5018781;28;20932;-73
2022/09/01 09:23:22;;;;;;;58.33;55.40;;;21.90;71.30;;;;;;5025293;28;20595;-71
2022/09/01 09:25:49;;;;;;;49.30;46.83;;;21.80;70.80;;;;;;5020591;28;20480;-72
2022/09/01 09:28:18;;;;;;;47.30;44.90;;;22.00;70.70;;;;;;5014559;28;20517;-73
2022/09/01 09:30:44;;;;;;;41.10;39.00;;;22.10;70.70;;;;;;5021127;28;20461;-73
2022/09/01 09:33:36;;;;;;;50.93;48.37;;;22.30;70.20;;;;;;5026197;28;20550;-73
2022/09/01 09:36:19;;;;;;;44.67;42.37;;;22.30;69.20;;;;;;5023987;28;20461;-69
2022/09/01 09:38:46;;;;;;;42.83;40.63;;;22.10;70.10;;;;;;5019584;28;20459;-70
2022/09/01 09:41:17;;;;;;;49.63;47.20;;;22.00;70.90;;;;;;5019258;28;20518;-70
2022/09/01 09:43:48;;;;;;;37.50;35.30;;;22.10;71.30;;;;;;5021091;28;20461;-70
2022/09/01 09:46:27;;;;;;;53.73;50.83;;;22.10;70.70;;;;;;5023353;28;20458;-70
2022/09/01 09:49:10;;;;;;;58.20;55.00;;;22.50;70.20;;;;;;5013344;28;20460;-70
2022/09/01 09:51:37;;;;;;;44.50;42.27;;;22.90;68.60;;;;;;5013059;28;20490;-69
2022/09/01 09:54:17;;;;;;;48.57;45.97;;;23.00;68.10;;;;;;5018576;28;21010;-70
2022/09/01 09:56:45;;;;;;;40.97;38.67;;;23.10;67.70;;;;;;5014456;28;20464;-71
2022/09/01 09:59:21;;;;;;;57.90;54.90;;;23.00;67.50;;;;;;5019805;28;20815;-70
2022/09/01 10:01:50;;;;;;;54.33;51.73;;;23.20;67.80;;;;;;5018481;28;20483;-69
2022/09/01 10:04:33;;;;;;;51.43;48.97;;;23.40;66.70;;;;;;5019373;28;21056;-70
2022/09/01 10:07:00;;;;;;;45.07;42.97;;;23.40;66.60;;;;;;5013784;28;20551;-71
2022/09/01 10:09:37;;;;;;;50.70;48.17;;;23.60;67.00;;;;;;5021832;28;20456;-71
2022/09/01 10:12:05;;;;;;;38.60;36.80;;;23.90;65.40;;;;;;5026721;28;20566;-69
2022/09/01 10:14:41;;;;;;;37.60;35.70;;;24.10;65.00;;;;;;5024260;28;21000;-70
2022/09/01 10:17:13;;;;;;;54.87;52.17;;;24.20;63.80;;;;;;5024507;28;20456;-70
2022/09/01 10:19:47;;;;;;;42.00;40.00;;;24.10;63.90;;;;;;5025863;28;20927;-70
2022/09/01 10:22:15;;;;;;;46.37;44.03;;;23.90;63.30;;;;;;5024643;28;20480;-70
2022/09/01 10:24:41;;;;;;;37.70;35.80;;;23.40;63.80;;;;;;5024860;28;20460;-69
2022/09/01 10:27:18;;;;;;;41.23;39.33;;;23.80;63.70;;;;;;5030198;28;20448;-70
2022/09/01 10:29:50;;;;;;;48.77;46.33;;;24.10;62.20;;;;;;5026511;28;20474;-71
2022/09/01 10:32:21;;;;;;;43.67;41.43;;;23.80;62.10;;;;;;5030379;28;20480;-73
2022/09/01 10:34:49;;;;;;;47.20;44.90;;;24.00;62.80;;;;;;5026598;28;20474;-72
2022/09/01 10:37:17;;;;;;;41.83;39.70;;;24.10;63.50;;;;;;5029139;28;20549;-72
2022/09/01 10:40:13;;;;;;;40.10;38.20;;;24.20;63.00;;;;;;5030849;28;20479;-72
2022/09/01 10:42:41;;;;;;;47.40;45.10;;;24.30;62.30;;;;;;5023847;28;20492;-72
2022/09/01 10:45:17;;;;;;;53.80;51.03;;;24.40;62.50;;;;;;5029672;28;20834;-73
2022/09/01 10:47:44;;;;;;;49.27;46.63;;;24.70;61.70;;;;;;5024858;28;20460;-73
2022/09/01 10:50:27;;;;;;;44.53;41.60;;;24.50;60.30;;;;;;5024265;28;20460;-73
2022/09/01 10:53:06;;;;;;;40.00;38.10;;;24.00;61.50;;;;;;5029553;28;20475;-73
2022/09/01 10:55:40;;;;;;;43.37;41.27;;;24.10;60.80;;;;;;5021974;28;20460;-73
2022/09/01 10:58:50;;;;;;;37.00;35.30;;;23.80;62.00;;;;;;5029537;28;20488;-73
2022/09/01 11:02:05;;;;;;;43.17;41.17;;;23.60;61.90;;;;;;5027714;28;20933;-73
2022/09/01 11:05:08;;;;;;;36.70;35.10;;;23.60;61.40;;;;;;5006742;28;20456;-74
2022/09/01 11:07:37;;;;;;;40.90;39.10;;;23.20;62.10;;;;;;5028778;28;20462;-73
2022/09/01 11:10:26;;;;;;;34.73;33.03;;;23.30;62.80;;;;;;5029771;28;20563;-73
2022/09/01 11:13:21;;;;;;;39.90;38.10;;;23.70;62.10;;;;;;5020593;28;20478;-74
2022/09/01 11:15:49;;;;;;;46.40;44.30;;;23.90;61.10;;;;;;5023809;28;20937;-72
2022/09/01 11:18:19;;;;;;;43.03;41.13;;;24.00;61.40;;;;;;5022411;28;20461;-72
2022/09/01 11:20:46;;;;;;;50.00;47.60;;;24.20;60.80;;;;;;5027220;28;20512;-72
2022/09/01 11:23:23;;;;;;;42.33;40.40;;;24.50;61.60;;;;;;5024389;28;20518;-72
2022/09/01 11:25:52;;;;;;;47.93;45.53;;;24.60;59.70;;;;;;5026507;28;20452;-72
2022/09/01 11:28:38;;;;;;;42.80;40.70;;;24.20;61.70;;;;;;5026019;28;20557;-72
2022/09/01 11:31:24;;;;;;;52.80;50.20;;;24.20;61.90;;;;;;5022417;28;20539;-72
2022/09/01 11:34:03;;;;;;;47.13;44.87;;;24.10;62.00;;;;;;5021149;28;20454;-72
2022/09/01 11:36:34;;;;;;;39.40;37.60;;;23.90;62.30;;;;;;5028651;28;20457;-72
2022/09/01 11:39:28;;;;;;;46.50;44.33;;;23.80;62.30;;;;;;5030455;28;20995;-72
2022/09/01 11:42:00;;;;;;;35.30;33.43;;;23.50;63.00;;;;;;5028314;28;20523;-73
2022/09/01 11:44:31;;;;;;;39.47;37.67;;;23.40;63.60;;;;;;5014386;28;20455;-73
2022/09/01 11:47:02;;;;;;;39.90;38.10;;;23.30;64.00;;;;;;5020841;28;20455;-73
2022/09/01 11:49:31;;;;;;;43.43;41.30;;;23.30;63.90;;;;;;5023197;28;20479;-72
2022/09/01 11:52:00;;;;;;;47.27;44.83;;;23.60;63.00;;;;;;5019610;28;20488;-76
2022/09/01 11:54:29;;;;;;;35.50;33.80;;;23.80;62.60;;;;;;5018964;28;20456;-72
2022/09/01 11:56:56;;;;;;;40.43;38.43;;;24.10;62.00;;;;;;5021846;28;20457;-72
2022/09/01 11:59:34;;;;;;;44.00;42.00;;;24.50;60.90;;;;;;5018820;28;20456;-73
2022/09/01 12:02:02;;;;;;;38.50;36.80;;;24.60;59.40;;;;;;5027539;28;20909;-72
2022/09/01 12:04:35;;;;;;;46.50;44.33;;;24.90;60.00;;;;;;5016532;28;20464;-72
2022/09/01 12:07:05;;;;;;;36.70;35.00;;;25.30;59.30;;;;;;5026711;28;20990;-72
2022/09/01 12:09:37;;;;;;;52.43;49.83;;;25.60;57.40;;;;;;5020071;28;20461;-72
2022/09/01 12:12:05;;;;;;;35.67;34.07;;;25.90;56.20;;;;;;5017875;28;21035;-72
2022/09/01 12:14:33;;;;;;;53.03;50.53;;;26.10;56.20;;;;;;5023576;28;20464;-72
2022/09/01 12:17:02;;;;;;;41.83;39.93;;;26.20;55.90;;;;;;5018386;28;20463;-73
2022/09/01 12:19:33;;;;;;;58.30;55.30;;;26.30;55.10;;;;;;5022506;28;20460;-73
2022/09/01 12:22:03;;;;;;;39.97;37.97;;;26.20;54.90;;;;;;5021161;28;20480;-72
2022/09/01 12:24:35;;;;;;;43.50;41.30;;;26.50;54.40;;;;;;5024259;28;20472;-72
2022/09/01 12:27:03;;;;;;;43.70;41.67;;;26.30;54.00;;;;;;5024356;28;20471;-72
2022/09/01 12:29:32;;;;;;;37.83;36.13;;;26.40;54.60;;;;;;5020290;28;20456;-72
2022/09/01 12:32:00;;;;;;;49.80;47.37;;;26.70;54.70;;;;;;5028683;28;20469;-72
2022/09/01 12:34:36;;;;;;;45.67;43.67;;;26.90;54.40;;;;;;5025286;28;20972;-73
2022/09/01 12:37:07;;;;;;;40.23;38.33;;;27.00;53.90;;;;;;5024889;28;20512;-72
2022/09/01 12:39:37;;;;;;;46.00;43.73;;;27.20;53.80;;;;;;5023610;28;20452;-73
2022/09/01 12:42:08;;;;;;;53.60;50.70;;;27.20;53.90;;;;;;5027045;28;20533;-73
2022/09/01 12:44:45;;;;;;;41.20;39.20;;;27.00;54.10;;;;;;5021911;28;20522;-73
2022/09/01 12:47:14;;;;;;;54.83;52.10;;;26.50;55.40;;;;;;5018431;28;20804;-72
2022/09/01 12:49:43;;;;;;;40.50;38.60;;;25.60;57.10;;;;;;5025847;28;20951;-72